Time;durP1;ratioP1;P1;durP2;ratioP2;P2;SDS_P1;SDS_P2;PMS_P1;PMS_P2;Temp;Humidity;BMP_temperature;BMP_pressure;BME280_temperature;BME280_humidity;BME280_pressure;Samples;Min_cycle;Max_cycle;Signal;HPM_P1;HPM_P2
2024/01/11 00:00:46;;;;;;;17.50;14.00;;;;;;;;;;43439;265;3031415;-32
2024/01/11 00:02:59;;;;;;;18.40;14.20;;;;;;;;;;43443;280;3031553;-32
2024/01/11 00:04:53;;;;;;;18.00;14.60;;;;;;;;;;43605;281;3031132;-32
2024/01/11 00:06:48;;;;;;;18.00;14.60;;;;;;;;;;43423;280;3031766;-32
2024/01/11 00:08:41;;;;;;;18.50;14.30;;;;;;;;;;43603;280;3031721;-32
2024/01/11 00:10:34;;;;;;;17.80;14.00;;;;;;;;;;44138;276;3031724;-32
2024/01/11 00:12:31;;;;;;;18.60;14.40;;;;;;;;;;44127;289;3031770;-32
2024/01/11 00:14:38;;;;;;;17.50;14.50;;;;;;;;;;44130;277;3032091;-32
2024/01/11 00:16:46;;;;;;;18.80;14.80;;;;;;;;;;44153;277;3031211;-33
2024/01/11 00:18:39;;;;;;;18.60;14.60;;;;;;;;;;43838;269;3037833;-32
2024/01/11 00:20:38;;;;;;;18.70;14.50;;;;;;;;;;44172;280;3031624;-32
2024/01/11 00:22:40;;;;;;;17.90;15.00;;;;;;;;;;44134;273;3031526;-33
2024/01/11 00:24:30;;;;;;;19.10;14.90;;;;;;;;;;43527;269;3031925;-32
2024/01/11 00:26:30;;;;;;;18.10;14.90;;;;;;;;;;43479;269;3031334;-32
2024/01/11 00:28:21;;;;;;;18.70;15.20;;;;;;;;;;43434;280;3031984;-32
2024/01/11 00:30:11;;;;;;;17.80;15.10;;;;;;;;;;43933;273;3038894;-32
2024/01/11 00:32:14;;;;;;;17.90;15.10;;;;;;;;;;43467;280;3031540;-32
2024/01/11 00:34:18;;;;;;;18.10;15.00;;;;;;;;;;44180;269;3031987;-32
2024/01/11 00:36:13;;;;;;;19.00;15.70;;;;;;;;;;43596;280;3031382;-32
2024/01/11 00:38:06;;;;;;;17.80;14.70;;;;;;;;;;44190;276;3032552;-32
2024/01/11 00:39:55;;;;;;;19.20;15.30;;;;;;;;;;43612;268;3031204;-32
2024/01/11 00:41:53;;;;;;;18.20;15.00;;;;;;;;;;43456;280;3031669;-32
2024/01/11 00:43:42;;;;;;;19.50;15.30;;;;;;;;;;43443;280;3031544;-32
2024/01/11 00:45:32;;;;;;;18.40;15.30;;;;;;;;;;43440;280;3032488;-32
2024/01/11 00:47:30;;;;;;;20.10;15.50;;;;;;;;;;43517;272;3031010;-32
2024/01/11 00:49:34;;;;;;;19.50;15.10;;;;;;;;;;44244;272;3031039;-32
2024/01/11 00:51:27;;;;;;;20.40;15.90;;;;;;;;;;43576;288;3031416;-32
2024/01/11 00:53:18;;;;;;;19.30;15.20;;;;;;;;;;43462;267;3031484;-32
2024/01/11 00:55:13;;;;;;;19.10;15.50;;;;;;;;;;44179;276;3031436;-32
2024/01/11 00:57:10;;;;;;;18.80;15.00;;;;;;;;;;44110;279;3031906;-33
2024/01/11 00:59:12;;;;;;;18.40;15.10;;;;;;;;;;44135;280;3031862;-33
2024/01/11 01:01:06;;;;;;;18.70;15.00;;;;;;;;;;44127;280;3037775;-33
2024/01/11 01:02:58;;;;;;;18.70;15.20;;;;;;;;;;43499;272;3039699;-33
2024/01/11 01:04:48;;;;;;;18.90;16.10;;;;;;;;;;43474;280;3031277;-33
2024/01/11 01:06:42;;;;;;;18.80;15.20;;;;;;;;;;44233;276;3031231;-33
2024/01/11 01:08:39;;;;;;;18.40;15.50;;;;;;;;;;43554;280;3031751;-33
2024/01/11 01:10:34;;;;;;;19.20;15.50;;;;;;;;;;44160;272;3031744;-33
2024/01/11 01:12:32;;;;;;;19.40;16.00;;;;;;;;;;44113;279;3031675;-33
2024/01/11 01:14:28;;;;;;;18.70;15.60;;;;;;;;;;44145;272;3037130;-33
2024/01/11 01:16:25;;;;;;;17.60;15.00;;;;;;;;;;43499;275;3031464;-33
2024/01/11 01:18:11;;;;;;;;;;;;;;;;;;43471;280;3031740;-32
2024/01/11 01:20:15;;;;;;;17.60;14.40;;;;;;;;;;43463;280;3031201;-32
2024/01/11 01:22:07;;;;;;;18.10;15.00;;;;;;;;;;43864;280;3031133;-32
2024/01/11 01:24:05;;;;;;;18.10;14.80;;;;;;;;;;43442;276;3033359;-32
2024/01/11 01:25:51;;;;;;;18.70;15.20;;;;;;;;;;43459;267;3031288;-32
2024/01/11 01:27:40;;;;;;;17.70;15.10;;;;;;;;;;43456;276;3031683;-32
2024/01/11 01:29:33;;;;;;;18.90;15.60;;;;;;;;;;44213;276;3031068;-32
2024/01/11 01:31:38;;;;;;;18.90;15.30;;;;;;;;;;44290;275;3031862;-32
2024/01/11 01:33:31;;;;;;;20.60;16.20;;;;;;;;;;44089;276;3031013;-32
2024/01/11 01:35:22;;;;;;;18.80;15.70;;;;;;;;;;43451;272;3031341;-32
2024/01/11 01:37:13;;;;;;;19.20;15.50;;;;;;;;;;43443;280;3031603;-32
2024/01/11 01:39:05;;;;;;;18.40;15.80;;;;;;;;;;43971;267;3031414;-32
2024/01/11 01:41:09;;;;;;;18.40;15.60;;;;;;;;;;44199;276;3031762;-32
2024/01/11 01:43:07;;;;;;;19.00;15.40;;;;;;;;;;44182;279;3031598;-32
2024/01/11 01:45:09;;;;;;;18.80;14.90;;;;;;;;;;44199;276;3032363;-32
2024/01/11 01:47:16;;;;;;;18.50;15.00;;;;;;;;;;44203;277;3031497;-32
2024/01/11 01:49:14;;;;;;;19.00;15.30;;;;;;;;;;44175;268;3031636;-32
2024/01/11 01:51:17;;;;;;;18.40;14.90;;;;;;;;;;44166;280;3031656;-32
2024/01/11 01:53:14;;;;;;;18.10;14.60;;;;;;;;;;44210;280;3031947;-32
2024/01/11 01:55:07;;;;;;;19.30;16.00;;;;;;;;;;43440;273;3031473;-32
2024/01/11 01:57:01;;;;;;;20.10;15.60;;;;;;;;;;44158;288;3031695;-32
2024/01/11 01:58:54;;;;;;;19.40;15.90;;;;;;;;;;43573;280;3031906;-32
2024/01/11 02:00:43;;;;;;;19.30;15.10;;;;;;;;;;43481;289;3031276;-32
2024/01/11 02:02:38;;;;;;;18.20;14.90;;;;;;;;;;43458;276;3031502;-32
2024/01/11 02:04:33;;;;;;;19.40;15.30;;;;;;;;;;44078;273;3033216;-33
2024/01/11 02:06:26;;;;;;;18.80;14.50;;;;;;;;;;43434;276;3031691;-33
2024/01/11 02:08:23;;;;;;;19.60;16.00;;;;;;;;;;43428;280;3031290;-32
2024/01/11 02:10:13;;;;;;;17.50;15.20;;;;;;;;;;43623;273;3031716;-33
2024/01/11 02:12:00;;;;;;;18.10;15.00;;;;;;;;;;43787;275;3031793;-33
2024/01/11 02:14:00;;;;;;;20.00;16.30;;;;;;;;;;43433;273;3031698;-32
2024/01/11 02:15:53;;;;;;;19.60;15.40;;;;;;;;;;43810;276;3031992;-32
2024/01/11 02:17:42;;;;;;;19.50;15.00;;;;;;;;;;43416;288;3031579;-33
2024/01/11 02:19:33;;;;;;;19.00;15.50;;;;;;;;;;44135;276;3031429;-33
2024/01/11 02:21:27;;;;;;;18.60;15.50;;;;;;;;;;43455;268;3031545;-32
2024/01/11 02:23:31;;;;;;;19.40;15.40;;;;;;;;;;44054;267;3031654;-33
2024/01/11 02:25:23;;;;;;;18.30;15.30;;;;;;;;;;44073;280;3031425;-33
2024/01/11 02:27:16;;;;;;;17.30;14.40;;;;;;;;;;43435;267;3031315;-32
2024/01/11 02:29:08;;;;;;;19.80;15.20;;;;;;;;;;43446;272;3031501;-32
2024/01/11 02:30:58;;;;;;;19.10;15.60;;;;;;;;;;44068;272;3031839;-32
2024/01/11 02:32:52;;;;;;;18.70;15.60;;;;;;;;;;43415;273;3031205;-33
2024/01/11 02:35:03;;;;;;;19.80;15.70;;;;;;;;;;43452;272;3031607;-32
2024/01/11 02:36:49;;;;;;;17.90;14.90;;;;;;;;;;43426;280;3031562;-32
2024/01/11 02:38:44;;;;;;;18.80;15.90;;;;;;;;;;43441;288;3038214;-31
2024/01/11 02:40:42;;;;;;;19.50;15.20;;;;;;;;;;44197;280;3032321;-33
2024/01/11 02:42:38;;;;;;;19.80;15.70;;;;;;;;;;43985;267;3031388;-32
2024/01/11 02:44:24;;;;;;;18.70;15.50;;;;;;;;;;43477;288;3031818;-32
2024/01/11 02:46:19;;;;;;;18.30;15.20;;;;;;;;;;44251;275;3031525;-33
2024/01/11 02:48:20;;;;;;;19.00;14.90;;;;;;;;;;44184;271;3031297;-33
2024/01/11 02:50:16;;;;;;;18.50;15.20;;;;;;;;;;43489;279;3037852;-32
2024/01/11 02:52:09;;;;;;;19.50;15.80;;;;;;;;;;43970;279;3031439;-32
2024/01/11 02:54:00;;;;;;;19.50;15.70;;;;;;;;;;43522;279;3031573;-33
2024/01/11 02:55:50;;;;;;;19.50;16.20;;;;;;;;;;43529;279;3031289;-33
2024/01/11 02:57:41;;;;;;;18.90;15.10;;;;;;;;;;43535;288;3032830;-33
2024/01/11 02:59:32;;;;;;;19.60;15.40;;;;;;;;;;44169;271;3031758;-32
2024/01/11 03:01:23;;;;;;;18.60;15.10;;;;;;;;;;43515;271;3031485;-32
2024/01/11 03:03:23;;;;;;;19.50;15.60;;;;;;;;;;44209;271;3031149;-32
2024/01/11 03:05:20;;;;;;;19.10;14.60;;;;;;;;;;43862;267;3031122;-32
2024/01/11 03:07:11;;;;;;;19.10;15.20;;;;;;;;;;44231;275;3032081;-32
2024/01/11 03:09:19;;;;;;;19.60;15.40;;;;;;;;;;44244;267;3031488;-33
2024/01/11 03:11:16;;;;;;;20.40;15.20;;;;;;;;;;44200;272;3032927;-33
2024/01/11 03:14:33;;;;;;;20.10;15.80;;;;;;;;;;44203;297;3011982;-33
2024/01/11 03:16:21;;;;;;;19.20;15.40;;;;;;;;;;43062;290;3032616;-33
2024/01/11 03:18:11;;;;;;;19.60;15.30;;;;;;;;;;43122;297;3031769;-33
2024/01/11 03:20:09;;;;;;;18.80;15.40;;;;;;;;;;43246;288;3031148;-33
2024/01/11 03:22:07;;;;;;;19.40;15.60;;;;;;;;;;43213;284;3032677;-33
2024/01/11 03:23:59;;;;;;;19.60;15.30;;;;;;;;;;43119;288;3031128;-32
2024/01/11 03:25:50;;;;;;;19.20;14.80;;;;;;;;;;43127;288;3037235;-32
2024/01/11 03:27:47;;;;;;;19.40;15.40;;;;;;;;;;43865;284;3031806;-32
2024/01/11 03:29:45;;;;;;;20.20;15.70;;;;;;;;;;43466;282;3031847;-33
2024/01/11 03:31:44;;;;;;;19.30;15.40;;;;;;;;;;43928;283;3031921;-33
2024/01/11 03:33:45;;;;;;;19.10;15.20;;;;;;;;;;43937;282;3032718;-33
2024/01/11 03:35:44;;;;;;;20.00;15.80;;;;;;;;;;43874;282;3031313;-33
2024/01/11 03:39:10;;;;;;;20.80;15.10;;;;;;;;;;44198;308;3011520;-33
2024/01/11 03:41:12;;;;;;;19.70;15.20;;;;;;;;;;43958;284;3031836;-33
2024/01/11 03:43:07;;;;;;;19.50;15.60;;;;;;;;;;43998;281;3031886;-33
2024/01/11 03:45:02;;;;;;;20.40;15.40;;;;;;;;;;43944;285;3031902;-33
2024/01/11 03:47:07;;;;;;;20.30;15.30;;;;;;;;;;43903;286;3031435;-33
2024/01/11 03:48:59;;;;;;;19.10;14.80;;;;;;;;;;43957;286;3031473;-33
2024/01/11 03:51:02;;;;;;;20.90;15.50;;;;;;;;;;43940;274;3040108;-33
2024/01/11 03:52:59;;;;;;;19.40;14.70;;;;;;;;;;43491;284;3632800;-33
2024/01/11 03:54:53;;;;;;;19.10;14.80;;;;;;;;;;43542;276;3031831;-32
2024/01/11 03:56:48;;;;;;;20.10;14.90;;;;;;;;;;43373;284;3031797;-32
2024/01/11 03:58:41;;;;;;;18.70;14.80;;;;;;;;;;43299;277;3032328;-32
2024/01/11 04:00:33;;;;;;;18.20;14.50;;;;;;;;;;43293;284;3031247;-32
2024/01/11 04:02:31;;;;;;;18.90;14.40;;;;;;;;;;43288;284;3038383;-32
2024/01/11 04:04:25;;;;;;;20.10;15.10;;;;;;;;;;43466;281;3031085;-32
2024/01/11 04:06:39;;;;;;;19.80;15.20;;;;;;;;;;43296;292;3031652;-32
2024/01/11 04:08:29;;;;;;;20.00;14.80;;;;;;;;;;43320;284;3031814;-33
2024/01/11 04:10:26;;;;;;;18.10;14.50;;;;;;;;;;43320;272;3031751;-32
2024/01/11 04:12:27;;;;;;;19.80;14.50;;;;;;;;;;43955;292;3031638;-32
2024/01/11 04:15:31;;;;;;;19.80;15.40;;;;;;;;;;44243;304;3012179;-33
2024/01/11 04:17:31;;;;;;;19.20;15.00;;;;;;;;;;43076;291;3031256;-32
2024/01/11 04:19:18;;;;;;;19.50;14.80;;;;;;;;;;43259;294;3031355;-32
2024/01/11 04:21:28;;;;;;;19.50;14.50;;;;;;;;;;44028;274;3031391;-32
2024/01/11 04:23:15;;;;;;;;;;;;;;;;;;43320;285;3031530;-32
2024/01/11 04:25:10;;;;;;;20.00;14.30;;;;;;;;;;43282;285;3032793;-32
2024/01/11 04:27:01;;;;;;;19.90;14.80;;;;;;;;;;43430;294;3038057;-33
2024/01/11 04:28:50;;;;;;;19.20;14.60;;;;;;;;;;43742;285;3031526;-33
2024/01/11 04:30:39;;;;;;;20.30;15.00;;;;;;;;;;43331;279;3031782;-33
2024/01/11 04:32:36;;;;;;;19.90;15.60;;;;;;;;;;43306;272;3031365;-33
2024/01/11 04:34:32;;;;;;;18.90;15.10;;;;;;;;;;43748;283;3031082;-33
2024/01/11 04:36:27;;;;;;;20.90;15.90;;;;;;;;;;43315;283;3031255;-33
2024/01/11 04:38:16;;;;;;;19.70;15.60;;;;;;;;;;43390;276;3031575;-33
2024/01/11 04:40:18;;;;;;;19.50;15.10;;;;;;;;;;43462;279;3031667;-33
2024/01/11 04:42:10;;;;;;;20.70;15.10;;;;;;;;;;43338;276;3031648;-33
2024/01/11 04:44:03;;;;;;;20.40;15.40;;;;;;;;;;43988;283;3031165;-34
2024/01/11 04:45:53;;;;;;;19.60;15.70;;;;;;;;;;43353;284;3031515;-32
2024/01/11 04:47:55;;;;;;;19.80;15.10;;;;;;;;;;44023;284;3038209;-33
2024/01/11 04:49:53;;;;;;;19.80;15.50;;;;;;;;;;43533;276;3031528;-33
2024/01/11 04:51:40;;;;;;;19.60;14.90;;;;;;;;;;43677;276;3031613;-33
2024/01/11 04:53:28;;;;;;;19.50;15.10;;;;;;;;;;43314;276;3030652;-33
2024/01/11 04:55:25;;;;;;;20.00;15.30;;;;;;;;;;43322;276;3031961;-33
2024/01/11 04:57:11;;;;;;;19.90;15.10;;;;;;;;;;43305;283;3031581;-33
2024/01/11 04:59:04;;;;;;;20.20;15.20;;;;;;;;;;43315;283;3031376;-33
2024/01/11 05:00:52;;;;;;;18.50;15.20;;;;;;;;;;43312;271;3031324;-33
2024/01/11 05:02:48;;;;;;;19.60;15.00;;;;;;;;;;43770;283;3031538;-33
2024/01/11 05:04:40;;;;;;;19.60;15.20;;;;;;;;;;43332;283;3031334;-33
2024/01/11 05:06:26;;;;;;;19.10;14.90;;;;;;;;;;43310;283;3031174;-33
2024/01/11 05:08:17;;;;;;;19.90;15.60;;;;;;;;;;43287;282;3037703;-32
2024/01/11 05:10:22;;;;;;;19.90;15.40;;;;;;;;;;43522;275;3032106;-32
2024/01/11 05:12:26;;;;;;;19.80;14.80;;;;;;;;;;44040;283;3031855;-32
2024/01/11 05:14:36;;;;;;;19.80;15.50;;;;;;;;;;44010;275;3032362;-32
2024/01/11 05:16:29;;;;;;;19.30;14.90;;;;;;;;;;43378;275;3031326;-32
2024/01/11 05:18:21;;;;;;;18.80;14.90;;;;;;;;;;43393;275;3038897;-32
2024/01/11 05:20:18;;;;;;;19.30;14.90;;;;;;;;;;43382;275;3032157;-32
2024/01/11 05:22:18;;;;;;;18.10;14.20;;;;;;;;;;43575;282;3031153;-32
2024/01/11 05:24:28;;;;;;;19.80;14.80;;;;;;;;;;43507;282;3031815;-33
2024/01/11 05:26:29;;;;;;;20.20;15.40;;;;;;;;;;43438;283;3031144;-33
2024/01/11 05:28:23;;;;;;;20.10;15.20;;;;;;;;;;43313;283;3031262;-33
2024/01/11 05:30:14;;;;;;;18.60;14.60;;;;;;;;;;43319;283;3031134;-33
2024/01/11 05:32:13;;;;;;;19.80;14.80;;;;;;;;;;44073;282;3032637;-33
2024/01/11 05:34:12;;;;;;;19.30;14.40;;;;;;;;;;44033;283;3031906;-33
2024/01/11 05:36:06;;;;;;;20.30;15.20;;;;;;;;;;44040;275;3032694;-32
2024/01/11 05:38:00;;;;;;;19.10;14.40;;;;;;;;;;44042;279;3031509;-33
2024/01/11 05:41:34;;;;;;;20.10;14.90;;;;;;;;;;44231;308;3012201;-33
2024/01/11 05:43:32;;;;;;;18.90;14.60;;;;;;;;;;43837;285;3031849;-33
2024/01/11 05:45:30;;;;;;;17.60;13.90;;;;;;;;;;43089;288;3032008;-33
2024/01/11 05:47:37;;;;;;;18.10;13.90;;;;;;;;;;43408;297;3031249;-33
2024/01/11 05:49:29;;;;;;;18.30;14.20;;;;;;;;;;43660;298;3031319;-34
2024/01/11 05:51:21;;;;;;;18.30;14.10;;;;;;;;;;43296;279;3031292;-33
2024/01/11 05:53:13;;;;;;;17.80;13.60;;;;;;;;;;43346;283;3031097;-33
2024/01/11 05:55:03;;;;;;;17.70;13.90;;;;;;;;;;43902;270;3032588;-32
2024/01/11 05:56:58;;;;;;;17.40;13.40;;;;;;;;;;43413;270;3031685;-32
2024/01/11 05:59:01;;;;;;;18.60;13.90;;;;;;;;;;43910;277;3031893;-32
2024/01/11 06:00:53;;;;;;;17.40;13.60;;;;;;;;;;43531;269;3031302;-32
2024/01/11 06:02:41;;;;;;;17.60;13.90;;;;;;;;;;43734;269;3030819;-32
2024/01/11 06:04:34;;;;;;;18.70;14.20;;;;;;;;;;43727;289;3031498;-32
2024/01/11 06:06:27;;;;;;;18.30;14.10;;;;;;;;;;43434;281;3031088;-32
2024/01/11 06:08:14;;;;;;;18.40;13.70;;;;;;;;;;43445;273;3031599;-32
2024/01/11 06:10:05;;;;;;;18.50;13.60;;;;;;;;;;43430;269;3031609;-32
2024/01/11 06:11:57;;;;;;;16.50;13.50;;;;;;;;;;43700;273;3031602;-32
2024/01/11 06:13:49;;;;;;;18.00;13.50;;;;;;;;;;43423;281;3031593;-32
2024/01/11 06:15:38;;;;;;;19.20;13.70;;;;;;;;;;43432;269;3031831;-32
2024/01/11 06:17:29;;;;;;;17.00;12.80;;;;;;;;;;43800;281;3031440;-33
2024/01/11 06:19:23;;;;;;;17.80;13.60;;;;;;;;;;43425;280;3031379;-33
2024/01/11 06:21:11;;;;;;;16.40;13.50;;;;;;;;;;43446;276;3031183;-33
2024/01/11 06:23:03;;;;;;;18.60;13.80;;;;;;;;;;43429;273;3031548;-33
2024/01/11 06:25:02;;;;;;;17.20;13.30;;;;;;;;;;43451;281;3032002;-33
2024/01/11 06:26:51;;;;;;;17.80;12.90;;;;;;;;;;43444;273;3031264;-30
2024/01/11 06:28:45;;;;;;;17.30;13.20;;;;;;;;;;43431;273;3032522;-30
2024/01/11 06:30:39;;;;;;;17.40;13.10;;;;;;;;;;43465;280;3031276;-30
2024/01/11 06:32:30;;;;;;;17.70;13.00;;;;;;;;;;43438;272;3031806;-30
2024/01/11 06:34:16;;;;;;;17.50;12.80;;;;;;;;;;43473;289;3031717;-30
2024/01/11 06:36:08;;;;;;;16.70;12.90;;;;;;;;;;43457;268;3031430;-30
2024/01/11 06:38:07;;;;;;;17.30;12.50;;;;;;;;;;44173;280;3031474;-31
2024/01/11 06:40:00;;;;;;;17.70;13.20;;;;;;;;;;43784;272;3031771;-30
2024/01/11 06:41:52;;;;;;;17.20;12.50;;;;;;;;;;43431;272;3032695;-31
2024/01/11 06:43:43;;;;;;;16.70;12.90;;;;;;;;;;43454;280;3031108;-30
2024/01/11 06:45:43;;;;;;;16.90;12.80;;;;;;;;;;44112;289;3031538;-33
2024/01/11 06:47:32;;;;;;;15.90;12.20;;;;;;;;;;43581;280;3032012;-33
2024/01/11 06:49:27;;;;;;;16.70;12.80;;;;;;;;;;43428;272;3032064;-33
2024/01/11 06:51:27;;;;;;;15.30;12.00;;;;;;;;;;43774;276;3031081;-33
2024/01/11 06:53:15;;;;;;;16.50;12.30;;;;;;;;;;44157;273;3031519;-31
2024/01/11 06:55:10;;;;;;;15.90;12.30;;;;;;;;;;43420;281;3032387;-31
2024/01/11 06:56:58;;;;;;;17.80;12.20;;;;;;;;;;43461;289;3032095;-31
2024/01/11 06:58:49;;;;;;;15.90;12.10;;;;;;;;;;43465;281;3031985;-31
2024/01/11 07:00:43;;;;;;;15.70;11.70;;;;;;;;;;43438;269;3031456;-31
2024/01/11 07:02:36;;;;;;;16.30;12.10;;;;;;;;;;43623;276;3031219;-32
2024/01/11 07:04:27;;;;;;;16.80;12.20;;;;;;;;;;43471;273;3031272;-32
2024/01/11 07:06:24;;;;;;;16.00;12.40;;;;;;;;;;43413;280;3032437;-32
2024/01/11 07:08:18;;;;;;;15.50;11.50;;;;;;;;;;43473;280;3032362;-32
2024/01/11 07:10:10;;;;;;;17.00;11.50;;;;;;;;;;43488;289;3031719;-33
2024/01/11 07:12:05;;;;;;;14.80;11.80;;;;;;;;;;43497;269;3031852;-33
2024/01/11 07:13:57;;;;;;;14.40;11.40;;;;;;;;;;43432;273;3031301;-32
2024/01/11 07:15:51;;;;;;;13.90;11.20;;;;;;;;;;43410;281;3031549;-33
2024/01/11 07:17:50;;;;;;;14.70;11.00;;;;;;;;;;43439;269;3031732;-32
2024/01/11 07:19:42;;;;;;;14.40;11.20;;;;;;;;;;43435;280;3031490;-32
2024/01/11 07:21:32;;;;;;;15.30;11.90;;;;;;;;;;44185;281;3031314;-32
2024/01/11 07:23:26;;;;;;;14.20;10.80;;;;;;;;;;43767;280;3031154;-32
2024/01/11 07:25:22;;;;;;;14.50;11.20;;;;;;;;;;43579;280;3031572;-32
2024/01/11 07:27:16;;;;;;;15.40;10.90;;;;;;;;;;44157;276;3038693;-33
2024/01/11 07:29:13;;;;;;;;;;;;;;;;;;44196;277;3031016;-33
2024/01/11 07:31:05;;;;;;;15.20;11.10;;;;;;;;;;43559;273;3031418;-32
2024/01/11 07:32:57;;;;;;;15.10;11.10;;;;;;;;;;43464;284;3031481;-32
2024/01/11 07:34:52;;;;;;;14.10;10.40;;;;;;;;;;43644;273;3031695;-32
2024/01/11 07:36:44;;;;;;;15.00;11.30;;;;;;;;;;43427;280;3031585;-32
2024/01/11 07:38:40;;;;;;;15.30;11.00;;;;;;;;;;43528;268;3031974;-32
2024/01/11 07:40:33;;;;;;;13.10;10.70;;;;;;;;;;43635;280;3031537;-32
2024/01/11 07:42:36;;;;;;;14.60;11.00;;;;;;;;;;44129;280;3031530;-32
2024/01/11 07:44:24;;;;;;;14.00;11.00;;;;;;;;;;43579;279;3031579;-32
2024/01/11 07:46:15;;;;;;;14.10;10.30;;;;;;;;;;43449;272;3032016;-32
2024/01/11 07:48:06;;;;;;;13.50;10.10;;;;;;;;;;43464;267;3037916;-32
2024/01/11 07:50:00;;;;;;;13.60;10.30;;;;;;;;;;44275;267;3031989;-32
2024/01/11 07:51:57;;;;;;;13.50;10.30;;;;;;;;;;44137;272;3031240;-32
2024/01/11 07:53:48;;;;;;;13.50;10.10;;;;;;;;;;43998;264;3031589;-32
2024/01/11 07:55:38;;;;;;;14.00;10.20;;;;;;;;;;44328;272;3032041;-32
2024/01/11 07:57:34;;;;;;;13.50;10.40;;;;;;;;;;44247;273;3031275;-32
2024/01/11 07:59:27;;;;;;;13.80;10.10;;;;;;;;;;43552;269;3031710;-32
2024/01/11 08:01:27;;;;;;;14.40;10.00;;;;;;;;;;43564;273;3031075;-32
2024/01/11 08:03:19;;;;;;;13.60;10.50;;;;;;;;;;43627;273;3032374;-32
2024/01/11 08:05:22;;;;;;;13.80;10.40;;;;;;;;;;43689;276;3032096;-32
2024/01/11 08:07:12;;;;;;;13.10;10.50;;;;;;;;;;43968;273;3031201;-33
2024/01/11 08:09:08;;;;;;;13.10;9.80;;;;;;;;;;43560;264;3031190;-32
2024/01/11 08:11:01;;;;;;;12.30;9.70;;;;;;;;;;44210;272;3031971;-33
2024/01/11 08:12:55;;;;;;;12.50;9.60;;;;;;;;;;43563;269;3031701;-33
2024/01/11 08:14:44;;;;;;;13.20;10.00;;;;;;;;;;43563;269;3032810;-33
2024/01/11 08:16:38;;;;;;;13.20;10.10;;;;;;;;;;43558;276;3031149;-32
2024/01/11 08:18:36;;;;;;;13.10;9.90;;;;;;;;;;43549;272;3038155;-32
2024/01/11 08:20:31;;;;;;;11.90;9.60;;;;;;;;;;43559;273;3031956;-32
2024/01/11 08:22:22;;;;;;;12.80;9.50;;;;;;;;;;43548;276;3031907;-33
2024/01/11 08:24:14;;;;;;;12.70;9.50;;;;;;;;;;43540;273;3032212;-32
2024/01/11 08:26:14;;;;;;;12.80;9.90;;;;;;;;;;43675;273;3031753;-32
2024/01/11 08:28:09;;;;;;;13.00;9.80;;;;;;;;;;43920;264;3031663;-32
2024/01/11 08:30:00;;;;;;;12.20;9.40;;;;;;;;;;44315;269;3031965;-33
2024/01/11 08:32:04;;;;;;;12.30;8.90;;;;;;;;;;44236;269;3031128;-32
2024/01/11 08:34:16;;;;;;;12.80;9.80;;;;;;;;;;44273;272;3031811;-33
2024/01/11 08:36:11;;;;;;;12.80;9.20;;;;;;;;;;44289;273;3031045;-33
2024/01/11 08:38:01;;;;;;;12.60;9.30;;;;;;;;;;44117;276;3031334;-32
2024/01/11 08:40:03;;;;;;;13.10;9.60;;;;;;;;;;44299;268;3031865;-32
2024/01/11 08:41:59;;;;;;;12.30;9.30;;;;;;;;;;44264;273;3031848;-33
2024/01/11 08:43:55;;;;;;;12.70;9.60;;;;;;;;;;44327;264;3031947;-33
2024/01/11 08:45:55;;;;;;;12.20;9.20;;;;;;;;;;44265;276;3031731;-33
2024/01/11 08:47:40;;;;;;;12.30;9.20;;;;;;;;;;44231;276;3031154;-33
2024/01/11 08:49:28;;;;;;;11.20;8.70;;;;;;;;;;44241;264;3031410;-33
2024/01/11 08:53:07;;;;;;;13.00;9.60;;;;;;;;;;44197;308;3013922;-33
2024/01/11 08:54:54;;;;;;;11.80;9.30;;;;;;;;;;43098;297;3031496;-33
2024/01/11 08:56:50;;;;;;;11.60;9.00;;;;;;;;;;43094;289;3032149;-32
2024/01/11 08:58:45;;;;;;;12.50;9.40;;;;;;;;;;43104;289;3031361;-32
2024/01/11 09:00:36;;;;;;;11.90;8.90;;;;;;;;;;43965;281;3031728;-32
2024/01/11 09:02:29;;;;;;;12.60;9.70;;;;;;;;;;43533;272;3031826;-32
2024/01/11 09:04:20;;;;;;;11.40;8.70;;;;;;;;;;43799;283;3037281;-33
2024/01/11 09:06:09;;;;;;;11.90;9.20;;;;;;;;;;43307;276;3038552;-34
2024/01/11 09:08:10;;;;;;;12.30;8.80;;;;;;;;;;43923;277;3032692;-31
2024/01/11 09:10:04;;;;;;;12.20;8.80;;;;;;;;;;43840;289;3031516;-31
2024/01/11 09:12:02;;;;;;;13.60;9.40;;;;;;;;;;43969;270;3031550;-32
2024/01/11 09:13:51;;;;;;;12.30;8.70;;;;;;;;;;43431;270;3031011;-30
2024/01/11 09:15:44;;;;;;;12.00;8.90;;;;;;;;;;43453;278;3031360;-30
2024/01/11 09:17:30;;;;;;;11.80;8.90;;;;;;;;;;43474;282;3038928;-30
2024/01/11 09:19:20;;;;;;;11.60;8.80;;;;;;;;;;43386;274;3032175;-30
2024/01/11 09:21:08;;;;;;;11.80;8.90;;;;;;;;;;43398;282;3031392;-30
2024/01/11 09:23:03;;;;;;;11.20;8.20;;;;;;;;;;44077;282;3031683;-30
2024/01/11 09:24:54;;;;;;;12.20;9.00;;;;;;;;;;44076;274;3031333;-31
2024/01/11 09:26:49;;;;;;;11.90;9.10;;;;;;;;;;43566;282;3031736;-31
2024/01/11 09:28:47;;;;;;;11.50;8.60;;;;;;;;;;43416;274;3031113;-31
2024/01/11 09:30:42;;;;;;;11.80;9.50;;;;;;;;;;43469;290;3031813;-31
2024/01/11 09:32:38;;;;;;;12.70;9.10;;;;;;;;;;43425;282;3031634;-30
2024/01/11 09:34:26;;;;;;;11.80;8.40;;;;;;;;;;43306;283;3031704;-30
2024/01/11 09:36:12;;;;;;;10.70;8.30;;;;;;;;;;43285;279;3031450;-30
2024/01/11 09:38:00;;;;;;;11.20;8.50;;;;;;;;;;43324;271;3038749;-30
2024/01/11 09:39:46;;;;;;;11.80;8.60;;;;;;;;;;44062;274;3031626;-30
2024/01/11 09:41:33;;;;;;;11.20;8.10;;;;;;;;;;43349;290;3031424;-30
2024/01/11 09:43:21;;;;;;;11.40;8.20;;;;;;;;;;43409;281;3031752;-30
2024/01/11 09:45:10;;;;;;;11.10;8.60;;;;;;;;;;43397;281;3031820;-30
2024/01/11 09:46:55;;;;;;;10.80;8.00;;;;;;;;;;44045;281;3030986;-30
2024/01/11 09:48:44;;;;;;;11.30;8.20;;;;;;;;;;44114;278;3031152;-30
2024/01/11 09:50:29;;;;;;;12.00;8.70;;;;;;;;;;43579;281;3031767;-30
2024/01/11 09:52:15;;;;;;;11.60;8.10;;;;;;;;;;44111;281;3031248;-30
2024/01/11 09:54:00;;;;;;;10.90;8.00;;;;;;;;;;43665;286;3031685;-30
2024/01/11 09:55:45;;;;;;;11.10;8.50;;;;;;;;;;43399;281;3031974;-30
2024/01/11 09:57:33;;;;;;;11.20;8.10;;;;;;;;;;43401;282;3032129;-31
2024/01/11 09:59:22;;;;;;;11.10;8.40;;;;;;;;;;43408;270;3031061;-30
2024/01/11 10:01:12;;;;;;;11.40;8.00;;;;;;;;;;43386;283;3032855;-30
2024/01/11 10:02:58;;;;;;;11.30;8.40;;;;;;;;;;43697;282;3031136;-30
2024/01/11 10:04:45;;;;;;;10.70;8.10;;;;;;;;;;43328;275;3031092;-30
2024/01/11 10:06:34;;;;;;;11.10;8.30;;;;;;;;;;44102;291;3032746;-31
2024/01/11 10:08:21;;;;;;;11.30;8.70;;;;;;;;;;43862;279;3031538;-31
2024/01/11 10:10:07;;;;;;;10.90;8.10;;;;;;;;;;44040;282;3031425;-31
2024/01/11 10:11:53;;;;;;;10.90;8.00;;;;;;;;;;43865;283;3030766;-30
2024/01/11 10:13:38;;;;;;;11.20;8.20;;;;;;;;;;43336;283;3032563;-29
2024/01/11 10:15:28;;;;;;;11.00;8.20;;;;;;;;;;43407;282;3032787;-30
2024/01/11 10:17:13;;;;;;;10.30;8.10;;;;;;;;;;43369;291;3031291;-30
2024/01/11 10:19:04;;;;;;;11.60;8.20;;;;;;;;;;43402;274;3037608;-30
2024/01/11 10:20:52;;;;;;;10.80;8.20;;;;;;;;;;43402;282;3033539;-29
2024/01/11 10:22:37;;;;;;;10.70;7.80;;;;;;;;;;43550;280;3030895;-29
2024/01/11 10:24:26;;;;;;;10.30;7.80;;;;;;;;;;43369;282;3031868;-29
2024/01/11 10:26:11;;;;;;;10.80;8.10;;;;;;;;;;43332;275;3032099;-29
2024/01/11 10:27:57;;;;;;;11.00;8.40;;;;;;;;;;43337;283;3030870;-30
2024/01/11 10:29:43;;;;;;;11.20;8.20;;;;;;;;;;43378;270;3031582;-30
2024/01/11 10:31:30;;;;;;;10.50;7.90;;;;;;;;;;43629;279;3032180;-30
2024/01/11 10:33:15;;;;;;;10.90;8.20;;;;;;;;;;43948;278;3031663;-29
2024/01/11 10:35:03;;;;;;;11.30;8.30;;;;;;;;;;43410;282;3031490;-31
2024/01/11 10:36:49;;;;;;;11.90;8.10;;;;;;;;;;43987;279;3031172;-31
2024/01/11 10:38:38;;;;;;;10.60;8.20;;;;;;;;;;43359;275;3032621;-31
2024/01/11 10:40:26;;;;;;;10.40;7.80;;;;;;;;;;43326;283;3032756;-31
2024/01/11 10:42:16;;;;;;;10.60;8.10;;;;;;;;;;43571;278;3031736;-31
2024/01/11 10:44:04;;;;;;;10.10;7.60;;;;;;;;;;43570;275;3032752;-31
2024/01/11 10:45:54;;;;;;;9.70;7.00;;;;;;;;;;43446;280;3031846;-31
2024/01/11 10:47:46;;;;;;;10.40;7.90;;;;;;;;;;43537;271;3031648;-31
2024/01/11 10:49:32;;;;;;;10.50;7.90;;;;;;;;;;44192;278;3031259;-32
2024/01/11 10:51:25;;;;;;;10.10;7.40;;;;;;;;;;44230;271;3031314;-31
2024/01/11 10:53:29;;;;;;;10.10;7.30;;;;;;;;;;44228;267;3031839;-31
2024/01/11 10:55:15;;;;;;;10.10;7.70;;;;;;;;;;44248;274;3031125;-32
2024/01/11 10:57:04;;;;;;;10.20;7.70;;;;;;;;;;44109;274;3031145;-32
2024/01/11 10:58:51;;;;;;;10.10;7.80;;;;;;;;;;43412;272;3031108;-31
2024/01/11 11:00:38;;;;;;;10.90;8.00;;;;;;;;;;44220;278;3031543;-32
2024/01/11 11:02:24;;;;;;;9.90;7.60;;;;;;;;;;43698;278;3031646;-31